Time;durP1;ratioP1;P1;durP2;ratioP2;P2;SDS_P1;SDS_P2;PMS_P1;PMS_P2;Temp;Humidity;BMP_temperature;BMP_pressure;BME280_temperature;BME280_humidity;BME280_pressure;Samples;Min_cycle;Max_cycle;Signal;HPM_P1;HPM_P2
2022/01/19 00:01:55;;;;;;;;;;;;;;;21.04;28.53;97081.31;10380753;28;1918;-56
2022/01/19 00:06:56;;;;;;;;;;;;;;;21.04;28.24;97054.94;10387014;28;1966;-57
2022/01/19 00:11:57;;;;;;;;;;;;;;;21.03;28.46;97042.03;10384215;28;1808;-58
2022/01/19 00:16:57;;;;;;;;;;;;;;;21.00;28.27;97061.72;10377957;28;1863;-54
2022/01/19 00:21:58;;;;;;;;;;;;;;;21.00;28.44;97056.44;10391554;28;1945;-58
2022/01/19 00:26:58;;;;;;;;;;;;;;;21.01;28.37;97059.91;10380427;28;1929;-57
2022/01/19 00:31:59;;;;;;;;;;;;;;;21.01;28.09;97047.53;10386720;28;1896;-57
2022/01/19 00:36:59;;;;;;;;;;;;;;;21.01;28.23;97044.06;10383018;28;1866;-58
2022/01/19 00:42:00;;;;;;;;;;;;;;;21.00;28.17;97040.63;10375492;28;1918;-55
2022/01/19 00:47:01;;;;;;;;;;;;;;;21.00;27.97;97014.28;10387445;28;1839;-55
2022/01/19 00:52:02;;;;;;;;;;;;;;;20.98;28.23;97019.00;10377956;28;1817;-58
2022/01/19 00:57:02;;;;;;;;;;;;;;;21.02;28.04;97012.22;10388166;28;1802;-55
2022/01/19 01:02:03;;;;;;;;;;;;;;;20.99;27.80;96991.59;10385349;28;1906;-58
2022/01/19 01:07:04;;;;;;;;;;;;;;;20.97;27.88;96977.88;10382479;28;1946;-57
2022/01/19 01:18:16;;;;;;;;;;;;;;;20.95;28.02;96961.50;10385779;28;1939;-56
2022/01/19 01:22:32;;;;;;;;;;;;;;;20.97;27.99;96943.59;10375929;28;1910;-56
2022/01/19 01:27:33;;;;;;;;;;;;;;;20.96;27.75;96926.19;10379516;28;1884;-53
2022/01/19 01:32:34;;;;;;;;;;;;;;;20.96;27.88;96920.13;10378263;28;1435;-57
2022/01/19 01:37:35;;;;;;;;;;;;;;;20.94;27.82;96922.19;10376467;28;1846;-57
2022/01/19 01:42:35;;;;;;;;;;;;;;;20.96;27.82;96925.38;10394214;28;1973;-57
2022/01/19 01:47:42;;;;;;;;;;;;;;;20.92;27.80;96922.47;10380861;28;1771;-62
2022/01/19 01:58:02;;;;;;;;;;;;;;;20.95;27.62;96881.63;10387430;28;1808;-58
2022/01/19 02:03:03;;;;;;;;;;;;;;;20.93;27.61;96867.91;10377686;28;1902;-58
2022/01/19 02:08:17;;;;;;;;;;;;;;;20.94;27.80;96849.19;10381600;28;1882;-55
2022/01/19 02:23:58;;;;;;;;;;;;;;;20.94;27.63;96817.56;10379900;28;1823;-55
2022/01/19 02:49:50;;;;;;;;;;;;;;;20.90;27.25;96781.41;10448050;28;1928;-41
2022/01/19 02:54:51;;;;;;;;;;;;;;;20.90;27.27;96776.94;10446018;28;2002;-41
2022/01/19 03:10:10;;;;;;;;;;;;;;;20.90;27.35;96784.84;10444891;28;1880;-42
2022/01/19 03:15:11;;;;;;;;;;;;;;;20.88;27.24;96771.13;10445417;28;1990;-42
2022/01/19 03:20:12;;;;;;;;;;;;;;;20.90;27.20;96776.94;10447693;28;1987;-41
2022/01/19 03:25:12;;;;;;;;;;;;;;;20.91;27.10;96772.47;10446297;28;1943;-42
2022/01/19 03:30:16;;;;;;;;;;;;;;;20.94;27.00;96771.97;10447690;28;1940;-47
2022/01/19 03:35:17;;;;;;;;;;;;;;;20.91;27.22;96777.75;10444569;28;1958;-47
2022/01/19 03:40:17;;;;;;;;;;;;;;;20.89;27.20;96775.38;10444925;28;2011;-46
2022/01/19 03:45:17;;;;;;;;;;;;;;;20.93;27.10;96771.19;10443837;28;2032;-45
2022/01/19 03:50:18;;;;;;;;;;;;;;;20.92;27.02;96753.78;10445092;28;1923;-42
2022/01/19 03:55:18;;;;;;;;;;;;;;;20.91;27.09;96754.03;10441337;28;2062;-41
2022/01/19 04:00:20;;;;;;;;;;;;;;;20.91;27.00;96760.09;10438233;28;1955;-44
2022/01/19 04:05:25;;;;;;;;;;;;;;;20.91;27.07;96761.94;10445285;28;2068;-42
2022/01/19 04:10:25;;;;;;;;;;;;;;;20.91;26.99;96762.75;10441097;28;1986;-44
2022/01/19 04:15:27;;;;;;;;;;;;;;;20.91;27.02;96778.56;10443880;28;1845;-41
2022/01/19 04:20:27;;;;;;;;;;;;;;;20.92;26.81;96790.66;10442938;28;1914;-44
2022/01/19 04:25:28;;;;;;;;;;;;;;;20.91;26.87;96786.47;10442710;28;2530;-42
2022/01/19 04:30:29;;;;;;;;;;;;;;;20.91;26.81;96785.66;10442632;28;1973;-43
2022/01/19 04:35:31;;;;;;;;;;;;;;;20.90;27.01;96776.94;10444079;28;1984;-40
2022/01/19 05:07:23;;;;;;;;;;;;;;;20.84;26.67;96735.78;10442081;28;1986;-40
2022/01/19 05:17:43;;;;;;;;;;;;;;;20.82;26.60;96740.50;10444182;28;2002;-40
2022/01/19 05:22:43;;;;;;;;;;;;;;;20.81;26.92;96717.06;10441998;28;2453;-41
2022/01/19 05:27:43;;;;;;;;;;;;;;;20.84;26.67;96719.97;10441153;28;1868;-43
2022/01/19 05:32:44;;;;;;;;;;;;;;;20.81;26.75;96725.72;10438911;28;1840;-43
2022/01/19 05:37:45;;;;;;;;;;;;;;;20.83;26.79;96715.75;10424082;28;2434;-41
2022/01/19 05:42:49;;;;;;;;;;;;;;;20.80;26.75;96724.16;10441067;28;1967;-41
2022/01/19 05:47:49;;;;;;;;;;;;;;;20.81;26.51;96720.47;10439232;28;2402;-42
2022/01/19 05:52:50;;;;;;;;;;;;;;;20.82;26.47;96714.16;10439305;28;2006;-42
2022/01/19 05:57:51;;;;;;;;;;;;;;;20.82;26.47;96706.25;10440417;28;1825;-43
2022/01/19 06:02:52;;;;;;;;;;;;;;;20.81;26.53;96709.91;10440212;28;2017;-41
2022/01/19 06:08:09;;;;;;;;;;;;;;;20.83;26.40;96701.78;10442067;28;1999;-43
2022/01/19 06:13:10;;;;;;;;;;;;;;;20.80;26.48;96697.00;10436321;28;1929;-41
2022/01/19 06:18:11;;;;;;;;;;;;;;;20.81;26.50;96698.59;10440170;28;2037;-41
2022/01/19 06:23:11;;;;;;;;;;;;;;;20.81;26.51;96682.81;10440976;28;1957;-46
2022/01/19 06:28:11;;;;;;;;;;;;;;;20.80;26.44;96682.00;10441534;28;2022;-42
2022/01/19 06:33:12;;;;;;;;;;;;;;;20.80;26.49;96682.00;10440052;28;1963;-39
2022/01/19 06:38:12;;;;;;;;;;;;;;;20.81;26.49;96678.31;10438718;28;2082;-41
2022/01/19 06:43:13;;;;;;;;;;;;;;;20.78;26.40;96673.56;10439564;28;1933;-42
2022/01/19 06:48:14;;;;;;;;;;;;;;;20.80;26.26;96675.94;10441201;28;2015;-44
2022/01/19 06:53:14;;;;;;;;;;;;;;;20.80;26.33;96676.72;10437816;28;2057;-45
2022/01/19 06:58:15;;;;;;;;;;;;;;;20.82;26.40;96677.28;10439502;28;2003;-40
2022/01/19 07:03:15;;;;;;;;;;;;;;;20.82;26.32;96673.84;10439423;28;1986;-43
2022/01/19 07:08:16;;;;;;;;;;;;;;;20.80;26.27;96668.03;10436852;28;2168;-41
2022/01/19 07:13:17;;;;;;;;;;;;;;;20.83;26.33;96655.16;10439850;28;1852;-43
2022/01/19 07:18:18;;;;;;;;;;;;;;;20.83;26.20;96649.88;10445945;28;2039;-41
2022/01/19 07:23:18;;;;;;;;;;;;;;;20.75;26.31;96646.94;10446198;28;1965;-39
2022/01/19 07:28:18;;;;;;;;;;;;;;;20.79;26.33;96653.28;10434907;28;1983;-45
2022/01/19 07:33:19;;;;;;;;;;;;;;;20.84;26.17;96656.72;10439937;28;1932;-45
2022/01/19 07:38:19;;;;;;;;;;;;;;;20.84;26.28;96650.66;10445091;28;1860;-42
2022/01/19 07:43:20;;;;;;;;;;;;;;;20.90;26.79;96642.53;10444456;28;1975;-43
2022/01/19 07:48:20;;;;;;;;;;;;;;;20.92;27.04;96637.00;10444898;28;2257;-40
2022/01/19 07:53:20;;;;;;;;;;;;;;;20.91;27.51;96630.97;10443818;28;1959;-45
2022/01/19 07:58:21;;;;;;;;;;;;;;;20.93;27.54;96634.13;10443671;28;2001;-42
2022/01/19 08:03:21;;;;;;;;;;;;;;;20.94;27.56;96637.53;10441227;28;2360;-42
2022/01/19 08:08:22;;;;;;;;;;;;;;;20.98;27.56;96636.00;10440269;28;1943;-44
2022/01/19 08:13:23;;;;;;;;;;;;;;;20.93;27.65;96628.88;10440899;28;1888;-43
2022/01/19 08:18:24;;;;;;;;;;;;;;;20.92;27.52;96629.09;10438220;28;2060;-44
2022/01/19 08:23:25;;;;;;;;;;;;;;;20.98;27.60;96620.97;10440925;28;2150;-42
2022/01/19 08:28:26;;;;;;;;;;;;;;;20.97;27.47;96619.41;10440326;28;2157;-43
2022/01/19 08:33:26;;;;;;;;;;;;;;;21.00;27.42;96610.97;10439373;28;2317;-44
2022/01/19 08:38:27;;;;;;;;;;;;;;;21.01;27.84;96611.78;10460013;22;2215;-57
2022/01/19 08:43:28;;;;;;;;;;;;;;;20.98;28.03;96599.88;10424484;28;1908;-50
2022/01/19 08:48:29;;;;;;;;;;;;;;;20.97;28.11;96598.31;10428111;28;2074;-53
2022/01/19 08:53:29;;;;;;;;;;;;;;;21.01;28.01;96599.38;10421014;28;1943;-54
2022/01/19 08:58:30;;;;;;;;;;;;;;;21.03;28.18;96597.31;10426715;28;2064;-53
2022/01/19 09:03:31;;;;;;;;;;;;;;;21.03;28.36;96597.31;10431724;28;1884;-54
2022/01/19 09:08:34;;;;;;;;;;;;;;;21.10;28.37;96598.94;10427648;28;1907;-53
2022/01/19 09:13:34;;;;;;;;;;;;;;;21.20;27.90;96602.41;10417861;28;2044;-51
2022/01/19 09:18:35;;;;;;;;;;;;;;;21.29;27.79;96600.09;10423448;28;1918;-53
2022/01/19 09:23:37;;;;;;;;;;;;;;;21.38;27.60;96587.97;10421507;28;2431;-48
2022/01/19 09:28:37;;;;;;;;;;;;;;;21.48;27.32;96580.88;10427611;28;2113;-51
2022/01/19 09:33:38;;;;;;;;;;;;;;;21.54;27.34;96576.41;10431085;28;1944;-51
2022/01/19 09:38:41;;;;;;;;;;;;;;;21.61;27.37;96572.50;10418991;28;2020;-54
2022/01/19 09:43:42;;;;;;;;;;;;;;;21.70;27.12;96562.22;10422245;28;2073;-54
2022/01/19 09:48:42;;;;;;;;;;;;;;;21.71;27.19;96561.97;10426242;28;1934;-52
2022/01/19 09:53:43;;;;;;;;;;;;;;;21.78;27.07;96549.28;10418748;28;2004;-53
2022/01/19 09:58:44;;;;;;;;;;;;;;;21.81;27.03;96550.63;10423527;28;1974;-54
2022/01/19 10:03:44;;;;;;;;;;;;;;;21.73;27.14;96544.03;10426592;28;1953;-55
2022/01/19 10:08:54;;;;;;;;;;;;;;;21.63;27.71;96532.66;10421994;28;1983;-52
2022/01/19 10:19:19;;;;;;;;;;;;;;;21.47;27.57;96513.38;10424511;28;2020;-52
2022/01/19 10:24:25;;;;;;;;;;;;;;;21.43;27.75;96496.47;10427513;28;1908;-56
2022/01/19 10:29:27;;;;;;;;;;;;;;;21.39;27.87;96497.25;10422877;28;1980;-56
2022/01/19 10:34:27;;;;;;;;;;;;;;;21.36;27.88;96487.22;10409583;28;1945;-57
2022/01/19 10:39:40;;;;;;;;;;;;;;;21.30;27.78;96475.06;10421525;28;2063;-55
2022/01/19 10:44:44;;;;;;;;;;;;;;;21.28;28.14;96459.53;10424360;28;2078;-56
2022/01/19 10:49:52;;;;;;;;;;;;;;;21.28;27.99;96443.69;10431531;28;2007;-57
2022/01/19 10:54:53;;;;;;;;;;;;;;;21.30;28.01;96438.16;10433456;28;1978;-55
2022/01/19 11:00:09;;;;;;;;;;;;;;;21.32;27.96;96438.69;10432902;28;1988;-51
2022/01/19 11:05:10;;;;;;;;;;;;;;;21.24;28.03;96432.09;10437744;28;1961;-56
2022/01/19 11:10:13;;;;;;;;;;;;;;;21.22;28.00;96423.66;10434536;28;2008;-52
2022/01/19 11:15:16;;;;;;;;;;;;;;;21.26;28.26;96421.28;10432517;28;1901;-52
2022/01/19 11:20:17;;;;;;;;;;;;;;;21.31;28.85;96410.75;10431236;28;1964;-54
2022/01/19 11:25:22;;;;;;;;;;;;;;;21.35;28.89;96402.03;10432445;28;2013;-56
2022/01/19 11:30:24;;;;;;;;;;;;;;;21.38;29.37;96401.53;10426854;28;2059;-53
2022/01/19 11:35:32;;;;;;;;;;;;;;;21.38;29.54;96392.81;10426543;28;2102;-53
2022/01/19 11:40:34;;;;;;;;;;;;;;;21.36;29.94;96381.72;10435156;28;1979;-53
2022/01/19 11:45:35;;;;;;;;;;;;;;;21.35;29.56;96377.53;10430042;28;1928;-52
2022/01/19 11:50:36;;;;;;;;;;;;;;;21.37;29.45;96368.28;10434321;28;2379;-52
2022/01/19 11:55:37;;;;;;;;;;;;;;;21.40;29.56;96359.06;10436848;28;2182;-52
2022/01/19 12:00:38;;;;;;;;;;;;;;;21.47;30.10;96356.94;10426741;28;2065;-52
2022/01/19 12:05:39;;;;;;;;;;;;;;;21.37;28.32;96343.78;10427493;28;1951;-54
2022/01/19 12:10:44;;;;;;;;;;;;;;;21.34;29.43;96329.25;10429241;28;1889;-54
2022/01/19 12:16:01;;;;;;;;;;;;;;;21.39;29.03;96315.28;10430820;28;1936;-54
2022/01/19 12:21:02;;;;;;;;;;;;;;;21.35;28.97;96301.06;10431663;28;1991;-54
2022/01/19 12:26:03;;;;;;;;;;;;;;;21.37;28.81;96301.56;10430861;28;3025;-55
2022/01/19 12:31:22;;;;;;;;;;;;;;;21.42;28.67;96285.72;10441648;28;2478;-54
2022/01/19 12:36:42;;;;;;;;;;;;;;;21.40;28.91;96277.28;10433609;28;1995;-52
2022/01/19 12:41:53;;;;;;;;;;;;;;;21.39;29.27;96275.72;10431668;28;1955;-55
2022/01/19 12:46:54;;;;;;;;;;;;;;;21.43;29.14;96268.88;10417419;28;1896;-52
2022/01/19 12:51:55;;;;;;;;;;;;;;;21.44;29.35;96265.94;10425219;28;1969;-52
2022/01/19 12:57:01;;;;;;;;;;;;;;;21.47;29.31;96256.72;10429171;28;1947;-51
2022/01/19 13:02:03;;;;;;;;;;;;;;;21.45;29.53;96235.09;10430010;28;1981;-52
2022/01/19 13:07:31;;;;;;;;;;;;;;;21.46;29.61;96228.75;10434150;28;1928;-53
2022/01/19 13:12:38;;;;;;;;;;;;;;;21.49;29.69;96215.84;10424287;28;1974;-56
2022/01/19 13:17:39;;;;;;;;;;;;;;;21.55;29.45;96220.03;10421407;28;2038;-53
2022/01/19 13:22:58;;;;;;;;;;;;;;;21.58;29.30;96218.69;10427390;28;1931;-55
2022/01/19 13:27:59;;;;;;;;;;;;;;;21.63;29.30;96205.50;10425862;28;1959;-54
2022/01/19 13:33:10;;;;;;;;;;;;;;;21.71;29.11;96195.19;10428440;28;1993;-55
2022/01/19 13:38:11;;;;;;;;;;;;;;;21.75;29.12;96198.06;10429847;28;1992;-53
2022/01/19 13:43:18;;;;;;;;;;;;;;;21.75;29.27;96187.50;10429286;28;2018;-52
2022/01/19 13:48:28;;;;;;;;;;;;;;;21.80;29.24;96190.16;10428009;28;1986;-54
2022/01/19 13:53:30;;;;;;;;;;;;;;;21.86;29.17;96183.81;10424968;28;2022;-55
2022/01/19 13:58:37;;;;;;;;;;;;;;;21.85;28.95;96177.75;10428809;28;2078;-56
2022/01/19 14:03:48;;;;;;;;;;;;;;;21.85;29.32;96182.22;10420085;28;1994;-51
2022/01/19 14:08:49;;;;;;;;;;;;;;;21.85;29.10;96179.56;10429441;28;1994;-53
2022/01/19 14:13:56;;;;;;;;;;;;;;;21.81;29.47;96168.78;10425699;28;1927;-52
2022/01/19 14:19:17;;;;;;;;;;;;;;;21.81;29.48;96166.16;10425109;28;2384;-56
2022/01/19 14:24:18;;;;;;;;;;;;;;;21.82;29.45;96161.66;10439073;28;1943;-55
2022/01/19 14:29:18;;;;;;;;;;;;;;;21.79;30.00;96164.81;10440693;28;2001;-53
2022/01/19 14:34:32;;;;;;;;;;;;;;;21.76;30.07;96162.72;10438382;28;2006;-51
2022/01/19 14:39:44;;;;;;;;;;;;;;;21.68;29.59;96155.34;10451604;22;1955;-72
2022/01/19 14:44:57;;;;;;;;;;;;;;;21.63;29.58;96148.25;10437761;28;2190;-71
2022/01/19 14:49:58;;;;;;;;;;;;;;;21.61;29.56;96149.59;10433362;28;1901;-72
2022/01/19 14:54:59;;;;;;;;;;;;;;;21.59;29.44;96141.16;10442512;28;2088;-71
2022/01/19 15:00:02;;;;;;;;;;;;;;;21.58;29.50;96139.56;10443987;28;2128;-72
2022/01/19 15:05:03;;;;;;;;;;;;;;;21.54;29.49;96127.97;10429623;28;1927;-72
2022/01/19 15:10:04;;;;;;;;;;;;;;;21.53;29.48;96126.41;10442038;28;2397;-72
2022/01/19 15:15:05;;;;;;;;;;;;;;;21.55;29.61;96129.56;10442246;28;1877;-73
2022/01/19 15:20:06;;;;;;;;;;;;;;;21.52;29.51;96116.91;10442407;28;2035;-72
2022/01/19 15:25:07;;;;;;;;;;;;;;;21.52;29.57;96112.41;10426363;28;1913;-71
2022/01/19 15:30:08;;;;;;;;;;;;;;;21.50;29.58;96111.91;10441150;28;1916;-72
2022/01/19 15:35:10;;;;;;;;;;;;;;;21.54;29.45;96112.13;10433188;28;2012;-73
2022/01/19 15:40:13;;;;;;;;;;;;;;;21.65;28.99;96116.31;10414698;28;1924;-70
2022/01/19 15:45:14;;;;;;;;;;;;;;;21.75;28.84;96111.00;10436321;28;2064;-71
2022/01/19 15:50:15;;;;;;;;;;;;;;;21.83;28.71;96115.72;10401324;28;2006;-72
2022/01/19 15:55:15;;;;;;;;;;;;;;;21.92;28.70;96114.09;10416152;28;1994;-73
2022/01/19 16:00:16;;;;;;;;;;;;;;;22.01;28.70;96127.50;10432019;28;1968;-72
2022/01/19 16:05:17;;;;;;;;;;;;;;;22.10;28.03;96137.22;10418296;28;1915;-72
2022/01/19 16:10:17;;;;;;;;;;;;;;;22.14;28.04;96151.44;10413985;28;1911;-73
2022/01/19 16:15:18;;;;;;;;;;;;;;;22.18;27.86;96154.31;10411894;28;1970;-73
2022/01/19 16:20:19;;;;;;;;;;;;;;;22.20;27.95;96146.91;10418281;28;1950;-72
2022/01/19 16:30:40;;;;;;;;;;;;;;;22.26;27.48;96159.81;10431632;28;1921;-71
2022/01/19 16:35:40;;;;;;;;;;;;;;;22.27;27.53;96168.53;10429776;28;1930;-70
2022/01/19 16:40:45;;;;;;;;;;;;;;;22.28;27.50;96160.34;10430759;28;2026;-72
2022/01/19 16:45:46;;;;;;;;;;;;;;;22.26;27.56;96166.94;10432658;28;2167;-73
2022/01/19 16:50:48;;;;;;;;;;;;;;;22.27;27.22;96176.47;10432636;28;1920;-72
2022/01/19 16:55:52;;;;;;;;;;;;;;;22.28;27.47;96176.19;10430884;28;1751;-72
2022/01/19 17:00:56;;;;;;;;;;;;;;;22.28;27.27;96165.63;10430077;28;2181;-72
2022/01/19 17:05:57;;;;;;;;;;;;;;;22.29;27.46;96175.13;10432530;28;1991;-69
2022/01/19 17:10:59;;;;;;;;;;;;;;;22.31;27.50;96169.56;10428003;28;1983;-69
2022/01/19 17:16:11;;;;;;;;;;;;;;;22.31;27.28;96173.00;10425533;28;1857;-69
2022/01/19 17:21:12;;;;;;;;;;;;;;;22.28;27.43;96176.19;10424182;28;1967;-70
2022/01/19 17:26:13;;;;;;;;;;;;;;;22.29;27.35;96175.13;10427920;28;1933;-71
2022/01/19 17:31:14;;;;;;;;;;;;;;;22.26;27.38;96167.75;10420981;28;1939;-70
2022/01/19 17:36:15;;;;;;;;;;;;;;;22.26;27.33;96173.03;10431606;28;1994;-71
2022/01/19 17:41:15;;;;;;;;;;;;;;;22.28;27.34;96175.38;10412353;28;1942;-70
2022/01/19 17:46:34;;;;;;;;;;;;;;;22.30;27.21;96167.97;10412214;28;1878;-71
2022/01/19 17:56:35;;;;;;;;;;;;;;;22.34;27.26;96169.78;10415734;28;1969;-72
2022/01/19 18:01:36;;;;;;;;;;;;;;;22.34;27.13;96164.50;10407041;28;1973;-71
2022/01/19 18:06:37;;;;;;;;;;;;;;;22.35;27.16;96165.31;10407381;28;1884;-72
2022/01/19 18:11:37;;;;;;;;;;;;;;;22.34;27.07;96172.44;10425318;28;1991;-71
2022/01/19 18:16:38;;;;;;;;;;;;;;;22.33;26.92;96168.22;10410554;28;1925;-71
2022/01/19 18:21:38;;;;;;;;;;;;;;;22.32;26.93;96174.56;10404612;28;1910;-70
2022/01/19 18:26:39;;;;;;;;;;;;;;;22.30;27.25;96174.06;10414417;28;1913;-70
2022/01/19 18:31:40;;;;;;;;;;;;;;;22.20;27.24;96171.47;10420728;28;1933;-74
2022/01/19 18:36:41;;;;;;;;;;;;;;;22.09;27.43;96167.31;10434549;28;1913;-71
2022/01/19 18:41:41;;;;;;;;;;;;;;;22.00;27.63;96161.03;10424603;28;1967;-71
2022/01/19 18:46:42;;;;;;;;;;;;;;;21.91;27.79;96160.00;10431877;28;2258;-72
2022/01/19 18:51:43;;;;;;;;;;;;;;;21.83;27.71;96157.94;10432921;28;2324;-71
2022/01/19 18:56:43;;;;;;;;;;;;;;;21.74;28.03;96164.84;10425334;28;2297;-72
2022/01/19 19:01:46;;;;;;;;;;;;;;;21.67;27.97;96164.31;10408774;28;2185;-71
2022/01/19 19:06:47;;;;;;;;;;;;;;;21.65;27.46;96151.41;10426385;28;1867;-70
2022/01/19 19:16:51;;;;;;;;;;;;;;;21.59;29.32;96152.50;10436223;28;2320;-70
2022/01/19 19:21:52;;;;;;;;;;;;;;;21.59;29.39;96152.50;10427713;28;2189;-71
2022/01/19 19:26:54;;;;;;;;;;;;;;;21.59;30.13;96151.69;10428038;28;1940;-70
2022/01/19 19:31:55;;;;;;;;;;;;;;;21.57;30.17;96154.63;10428080;28;1958;-70
2022/01/19 19:36:56;;;;;;;;;;;;;;;21.55;30.24;96150.66;10429448;28;1929;-71
2022/01/19 19:41:59;;;;;;;;;;;;;;;21.55;30.21;96140.13;10416394;28;1976;-71
2022/01/19 19:47:00;;;;;;;;;;;;;;;21.53;30.30;96147.50;10429045;28;1957;-69
2022/01/19 19:52:00;;;;;;;;;;;;;;;21.53;30.21;96153.56;10433038;28;1970;-71
2022/01/19 19:57:01;;;;;;;;;;;;;;;21.48;30.23;96145.66;10430724;28;2034;-70
2022/01/19 20:02:02;;;;;;;;;;;;;;;21.49;30.18;96141.19;10433550;28;1971;-70
2022/01/19 20:07:02;;;;;;;;;;;;;;;21.52;30.08;96151.19;10424885;28;2051;-71
2022/01/19 20:12:03;;;;;;;;;;;;;;;21.51;30.03;96136.44;10432817;28;1941;-71
2022/01/19 20:17:04;;;;;;;;;;;;;;;21.50;30.19;96121.66;10412907;28;1971;-71
2022/01/19 20:22:05;;;;;;;;;;;;;;;21.44;30.13;96117.47;10430930;28;1981;-70
2022/01/19 20:27:05;;;;;;;;;;;;;;;21.41;30.45;96123.28;10426619;28;2074;-69
2022/01/19 20:32:07;;;;;;;;;;;;;;;21.44;29.94;96134.09;10398974;28;1998;-69
2022/01/19 20:37:07;;;;;;;;;;;;;;;21.44;29.87;96122.72;10408218;28;2150;-69
2022/01/19 20:42:08;;;;;;;;;;;;;;;21.49;30.11;96126.16;10447623;28;1978;-70
2022/01/19 20:47:08;;;;;;;;;;;;;;;21.52;30.16;96135.38;10433811;28;1961;-72
2022/01/19 20:52:09;;;;;;;;;;;;;;;21.50;30.00;96126.94;10432367;28;2010;-69
2022/01/19 20:57:10;;;;;;;;;;;;;;;21.52;30.20;96130.88;10430635;28;1947;-69
2022/01/19 21:02:13;;;;;;;;;;;;;;;21.53;30.02;96119.28;10416988;28;1972;-69
2022/01/19 21:07:14;;;;;;;;;;;;;;;21.47;29.61;96124.84;10433352;28;1953;-71
2022/01/19 21:12:16;;;;;;;;;;;;;;;21.42;30.00;96122.22;10416440;28;1867;-71
2022/01/19 21:17:17;;;;;;;;;;;;;;;21.39;30.26;96133.31;10425212;28;1981;-69
2022/01/19 21:22:18;;;;;;;;;;;;;;;21.39;30.08;96130.69;10429547;28;1997;-71
2022/01/19 21:27:18;;;;;;;;;;;;;;;21.39;30.26;96135.97;10432831;28;1908;-71
2022/01/19 21:32:19;;;;;;;;;;;;;;;21.38;30.21;96137.78;10405030;28;2035;-71
2022/01/19 21:37:21;;;;;;;;;;;;;;;21.37;30.29;96136.19;10428531;28;2107;-71
2022/01/19 21:42:21;;;;;;;;;;;;;;;21.39;29.76;96122.78;10431751;28;1946;-71
2022/01/19 21:47:22;;;;;;;;;;;;;;;21.41;29.92;96137.25;10431966;28;2332;-71
2022/01/19 21:52:23;;;;;;;;;;;;;;;21.42;29.86;96140.69;10415013;28;2189;-70
2022/01/19 21:57:24;;;;;;;;;;;;;;;21.40;29.77;96137.53;10432829;28;1968;-69
2022/01/19 22:02:24;;;;;;;;;;;;;;;21.37;29.73;96145.97;10416893;28;2018;-69
2022/01/19 22:07:25;;;;;;;;;;;;;;;21.37;29.76;96148.63;10433249;28;1968;-70
2022/01/19 22:12:26;;;;;;;;;;;;;;;21.35;29.50;96140.97;10414214;28;1994;-70
2022/01/19 22:17:29;;;;;;;;;;;;;;;21.36;29.34;96142.56;10433394;28;1961;-71
2022/01/19 22:22:29;;;;;;;;;;;;;;;21.34;29.50;96149.94;10423595;28;1910;-71
2022/01/19 22:27:30;;;;;;;;;;;;;;;21.35;29.36;96159.41;10425431;28;1883;-71
2022/01/19 22:32:30;;;;;;;;;;;;;;;21.34;29.35;96157.06;10435908;28;1976;-71
2022/01/19 22:37:31;;;;;;;;;;;;;;;21.32;29.18;96156.53;10409977;28;2357;-71
2022/01/19 22:42:32;;;;;;;;;;;;;;;21.33;29.16;96144.94;10429505;28;2112;-71
2022/01/19 22:47:33;;;;;;;;;;;;;;;21.33;29.05;96143.06;10432436;28;2195;-69
2022/01/19 22:52:34;;;;;;;;;;;;;;;21.31;28.96;96153.09;10437816;28;2010;-69
2022/01/19 22:57:35;;;;;;;;;;;;;;;21.29;29.04;96142.03;10421070;28;1822;-72
2022/01/19 23:02:35;;;;;;;;;;;;;;;21.29;28.72;96143.91;10440520;28;1928;-72
2022/01/19 23:07:36;;;;;;;;;;;;;;;21.28;28.81;96139.66;10439426;28;1786;-71
2022/01/19 23:12:38;;;;;;;;;;;;;;;21.25;28.76;96145.47;10435287;28;1998;-71
2022/01/19 23:17:39;;;;;;;;;;;;;;;21.26;28.90;96141.78;10433838;28;1943;-72
2022/01/19 23:22:41;;;;;;;;;;;;;;;21.25;28.54;96142.81;10434469;28;1976;-69
2022/01/19 23:27:43;;;;;;;;;;;;;;;21.22;28.84;96143.38;10440589;28;1953;-71
2022/01/19 23:32:52;;;;;;;;;;;;;;;21.22;28.59;96146.03;10421103;28;2538;-72
2022/01/19 23:48:20;;;;;;;;;;;;;;;21.22;28.49;96128.34;10437943;28;1927;-71
2022/01/19 23:53:22;;;;;;;;;;;;;;;21.20;28.70;96129.69;10443957;28;1960;-71
2022/01/19 23:58:28;;;;;;;;;;;;;;;21.20;28.44;96117.28;10435630;28;1995;-71
